CheckWX is a tool to help pilots better visualize weather data.  It is not intended as a substitute for an official pre-flight weather briefing.

05:34:04 UTC

KHRL METAR
Valley International Airport
Harlingen, Texas, USA
Current

42 mins ago

KHRL 180452Z 14007KT 10SM BKN023 OVC028 29/25 A2986 RMK AO2 SLP112 T02890250
Observed
Aug-18 @ 04:52 UTC
Wind
  • 140° at 7 KTS
Visibility
10 SM
Flight Rules
MVFR
Cloud Levels
  • Broken at 2,300' AGL
  • Overcast at 2,800' AGL
Temperature
29°C / 84°F
Dewpoint
25°C / 77°F
Heat Index
34°C / 94°F
Humidity
79%
Altimeter
29.86" Hg
Pressure
1011.22 hPa
Previous

2 hours ago

KHRL 180352Z 14011KT 10SM BKN024 28/25 A2984 RMK AO2 SLP106 T02830250
Observed
Aug-18 @ 03:52 UTC
Wind
  • 140° at 11 KTS
Visibility
10 SM
Flight Rules
MVFR
Cloud Levels
  • Broken at 2,400' AGL
Temperature
28°C / 82°F
Dewpoint
25°C / 77°F
Heat Index
32°C / 90°F
Humidity
84%
Altimeter
29.84" Hg
Pressure
1010.52 hPa
Previous

3 hours ago

KHRL 180252Z 14013KT 10SM CLR 29/24 A2982 RMK AO2 SLP096 T02890239 53017
Observed
Aug-18 @ 02:52 UTC
Wind
  • 140° at 13 KTS
Visibility
10 SM
Flight Rules
VFR
Cloud Levels
  • Clear skies
Temperature
29°C / 84°F
Dewpoint
24°C / 75°F
Heat Index
33°C / 92°F
Humidity
74%
Altimeter
29.82" Hg
Pressure
1009.82 hPa